createdAt,value
2023-03-17T00:02:12.915Z,47.93
2023-03-17T00:04:44.285Z,51.57
2023-03-17T00:07:18.823Z,50.27
2023-03-17T00:09:48.297Z,65.67
2023-03-17T00:12:19.813Z,54.07
2023-03-17T00:14:49.301Z,60.30
2023-03-17T00:17:18.915Z,59.27
2023-03-17T00:19:50.389Z,52.87
2023-03-17T00:22:22.767Z,56.40
2023-03-17T00:24:52.282Z,55.03
2023-03-17T00:27:21.868Z,50.83
2023-03-17T00:29:51.478Z,52.23
2023-03-17T00:32:22.905Z,50.60
2023-03-17T00:34:54.063Z,46.97
2023-03-17T00:37:23.668Z,48.07
2023-03-17T00:39:53.209Z,41.23
2023-03-17T00:42:22.776Z,41.10
2023-03-17T00:44:52.160Z,47.90
2023-03-17T00:47:21.645Z,44.17
2023-03-17T00:49:51.140Z,49.07
2023-03-17T00:52:22.445Z,40.60
2023-03-17T00:54:52.242Z,44.30
2023-03-17T00:57:21.751Z,41.73
2023-03-17T00:59:51.858Z,39.47
2023-03-17T01:02:21.697Z,34.03
2023-03-17T01:04:59.798Z,39.93
2023-03-17T01:07:35.646Z,32.53
2023-03-17T01:10:05.455Z,35.60
2023-03-17T01:12:35.261Z,44.00
2023-03-17T01:15:06.291Z,40.30
2023-03-17T01:17:35.701Z,37.77
2023-03-17T01:20:06.094Z,31.17
2023-03-17T01:22:37.171Z,36.77
2023-03-17T01:25:07.498Z,42.53
2023-03-17T01:27:38.118Z,43.90
2023-03-17T01:30:09.681Z,33.67
2023-03-17T01:32:40.049Z,30.83
2023-03-17T01:35:10.939Z,39.90
2023-03-17T01:37:42.696Z,32.93
2023-03-17T01:40:17.728Z,34.73
2023-03-17T01:42:53.168Z,32.77
2023-03-17T01:45:59.986Z,33.43
2023-03-17T01:48:31.093Z,34.57
2023-03-17T01:51:01.453Z,28.27
2023-03-17T01:53:32.768Z,32.00
2023-03-17T01:56:05.461Z,40.07
2023-03-17T01:58:35.870Z,30.47
2023-03-17T02:01:05.637Z,31.53
2023-03-17T02:03:35.069Z,35.70
2023-03-17T02:06:05.597Z,35.13
2023-03-17T02:08:36.922Z,31.13
2023-03-17T02:11:07.177Z,33.37
2023-03-17T02:13:38.226Z,34.63
2023-03-17T02:16:08.861Z,31.40
2023-03-17T02:18:38.557Z,32.60
2023-03-17T02:21:36.448Z,33.17
2023-03-17T02:24:10.323Z,31.00
2023-03-17T02:26:40.871Z,30.13
2023-03-17T02:29:11.701Z,31.20
2023-03-17T02:31:41.614Z,30.77
2023-03-17T02:34:11.431Z,21.57
2023-03-17T02:36:42.864Z,30.43
2023-03-17T02:39:13.095Z,27.93
2023-03-17T02:41:43.234Z,34.10
2023-03-17T02:44:13.467Z,27.33
2023-03-17T02:46:43.262Z,24.77
2023-03-17T02:49:14.493Z,26.40
2023-03-17T02:51:46.148Z,27.47
2023-03-17T02:54:15.985Z,24.97
2023-03-17T02:56:45.672Z,25.97
2023-03-17T02:59:15.597Z,28.00
2023-03-17T03:01:45.572Z,33.50
2023-03-17T03:04:15.111Z,32.53
2023-03-17T03:06:46.455Z,31.57
2023-03-17T03:09:18.316Z,29.27
2023-03-17T03:11:48.648Z,23.97
2023-03-17T03:14:18.133Z,24.77
2023-03-17T03:16:48.558Z,25.07
2023-03-17T03:19:18.065Z,23.17
2023-03-17T03:21:48.909Z,22.17
2023-03-17T03:24:18.414Z,24.93
2023-03-17T03:26:48.019Z,19.60
2023-03-17T03:29:17.845Z,22.00
2023-03-17T03:31:49.089Z,26.10
2023-03-17T03:34:18.981Z,23.30
2023-03-17T03:36:50.553Z,22.80
2023-03-17T03:39:20.158Z,23.43
2023-03-17T03:41:49.860Z,25.53
2023-03-17T03:44:19.472Z,23.57
2023-03-17T03:46:49.050Z,26.53
2023-03-17T03:49:18.998Z,20.40
2023-03-17T03:51:50.439Z,25.90
2023-03-17T03:54:19.743Z,19.40
2023-03-17T03:56:49.350Z,15.40
2023-03-17T03:59:19.061Z,20.47
2023-03-17T04:01:48.771Z,14.50
2023-03-17T04:04:18.306Z,17.27
2023-03-17T04:06:49.738Z,16.50
2023-03-17T04:09:19.330Z,17.00
2023-03-17T04:11:49.138Z,23.77
2023-03-17T04:14:19.151Z,20.23
2023-03-17T04:16:48.654Z,18.90
2023-03-17T04:19:18.258Z,16.27
2023-03-17T04:21:51.563Z,16.20
2023-03-17T04:24:22.408Z,24.20
2023-03-17T04:26:52.513Z,23.47
2023-03-17T04:29:22.222Z,15.87
2023-03-17T04:31:51.844Z,17.33
2023-03-17T04:34:22.153Z,18.77
2023-03-17T04:36:53.180Z,22.10
2023-03-17T04:39:22.682Z,22.20
2023-03-17T04:41:52.301Z,25.20
2023-03-17T04:44:22.222Z,21.23
2023-03-17T04:46:51.921Z,22.80
2023-03-17T04:49:21.949Z,22.33
2023-03-17T04:51:53.099Z,23.07
2023-03-17T04:54:23.203Z,25.20
2023-03-17T04:56:52.603Z,22.27
2023-03-17T04:59:22.322Z,20.80
2023-03-17T05:01:51.886Z,18.30
2023-03-17T05:04:31.205Z,25.33
2023-03-17T05:07:04.209Z,22.93
2023-03-17T05:09:33.655Z,27.83
2023-03-17T05:12:03.257Z,23.13
2023-03-17T05:14:32.757Z,26.43
2023-03-17T05:17:02.661Z,25.27
2023-03-17T05:19:32.390Z,24.93
2023-03-17T05:22:03.629Z,25.30
2023-03-17T05:24:33.126Z,22.17
2023-03-17T05:27:02.732Z,22.70
2023-03-17T05:29:32.152Z,25.03
2023-03-17T05:32:01.736Z,22.50
2023-03-17T05:34:31.444Z,19.80
2023-03-17T05:37:02.596Z,22.87
2023-03-17T05:39:32.390Z,24.73
2023-03-17T05:42:01.739Z,25.10
2023-03-17T05:44:31.491Z,27.33
2023-03-17T05:47:01.470Z,24.90
2023-03-17T05:49:31.962Z,24.30
2023-03-17T05:52:03.519Z,22.90
2023-03-17T05:54:33.124Z,20.00
2023-03-17T05:57:02.625Z,25.17
2023-03-17T05:59:32.743Z,20.10
2023-03-17T06:02:02.266Z,26.17
2023-03-17T06:04:32.057Z,22.53
2023-03-17T06:07:03.302Z,28.67
2023-03-17T06:09:33.322Z,26.50
2023-03-17T06:12:03.251Z,28.07
2023-03-17T06:14:32.842Z,29.07
2023-03-17T06:17:02.564Z,31.67
2023-03-17T06:19:32.578Z,25.47
2023-03-17T06:22:03.715Z,23.30
2023-03-17T06:24:33.320Z,27.07
2023-03-17T06:27:03.221Z,27.30
2023-03-17T06:29:33.159Z,27.80
2023-03-17T06:32:19.443Z,33.77
2023-03-17T06:34:50.136Z,31.30
2023-03-17T06:37:21.639Z,26.20
2023-03-17T06:39:51.345Z,27.70
2023-03-17T06:42:20.726Z,29.30
2023-03-17T06:44:53.024Z,35.57
2023-03-17T06:47:25.826Z,29.27
2023-03-17T06:49:56.019Z,26.53
2023-03-17T06:52:28.279Z,29.00
2023-03-17T06:54:58.100Z,30.63
2023-03-17T06:57:27.700Z,27.70
2023-03-17T06:59:57.814Z,27.63
2023-03-17T07:02:33.792Z,29.40
2023-03-17T07:05:04.280Z,31.17
2023-03-17T07:07:38.412Z,27.10
2023-03-17T07:10:10.538Z,28.57
2023-03-17T07:12:39.815Z,27.73
2023-03-17T07:15:11.292Z,24.93
2023-03-17T07:17:40.068Z,23.80
2023-03-17T07:20:11.267Z,29.63
2023-03-17T07:22:41.496Z,25.10
2023-03-17T07:25:11.227Z,23.40
2023-03-17T07:27:40.468Z,25.83
2023-03-17T07:30:11.054Z,26.37
2023-03-17T07:32:40.478Z,25.50
2023-03-17T07:35:09.808Z,29.60
2023-03-17T07:37:38.698Z,25.90
2023-03-17T07:40:10.624Z,24.20
2023-03-17T07:42:39.326Z,30.83
2023-03-17T07:45:10.290Z,27.23
2023-03-17T07:47:43.372Z,26.93
2023-03-17T07:50:13.011Z,29.50
2023-03-17T07:52:42.396Z,27.67
2023-03-17T07:55:13.049Z,30.20
2023-03-17T07:57:41.940Z,24.23
2023-03-17T08:00:13.894Z,23.67
2023-03-17T08:02:42.892Z,22.43
2023-03-17T08:05:15.371Z,23.13
2023-03-17T08:07:44.734Z,23.43
2023-03-17T08:10:15.928Z,22.53
2023-03-17T08:12:45.166Z,22.87
2023-03-17T08:15:14.198Z,23.70
2023-03-17T08:17:42.944Z,18.67
2023-03-17T08:20:14.575Z,22.47
2023-03-17T08:22:44.289Z,16.47
2023-03-17T08:25:14.680Z,19.13
2023-03-17T08:27:43.399Z,20.67
2023-03-17T08:30:13.750Z,18.60
2023-03-17T08:32:42.878Z,19.83
2023-03-17T08:35:16.181Z,18.37
2023-03-17T08:37:44.871Z,17.07
2023-03-17T08:40:17.845Z,16.60
2023-03-17T08:42:47.862Z,19.20
2023-03-17T08:45:21.505Z,14.53
2023-03-17T08:47:50.556Z,15.40
2023-03-17T08:50:21.431Z,14.87
2023-03-17T08:52:50.721Z,16.50
2023-03-17T08:55:21.469Z,17.87
2023-03-17T08:57:50.207Z,17.30
2023-03-17T09:00:21.131Z,17.00
2023-03-17T09:02:50.329Z,13.40
2023-03-17T09:05:21.072Z,13.27
2023-03-17T09:07:50.468Z,17.47
2023-03-17T09:10:23.751Z,13.83
2023-03-17T09:12:53.581Z,12.77
2023-03-17T09:15:22.530Z,12.87
2023-03-17T09:17:51.301Z,14.13
2023-03-17T09:20:20.923Z,13.80
2023-03-17T09:22:50.025Z,12.20
2023-03-17T09:25:20.973Z,12.87
2023-03-17T09:27:49.657Z,11.30
2023-03-17T09:30:18.920Z,10.70
2023-03-17T09:32:47.681Z,10.00
2023-03-17T09:35:16.918Z,11.17
2023-03-17T09:37:45.578Z,10.30
2023-03-17T09:40:19.592Z,10.03
2023-03-17T09:42:58.324Z,10.27
2023-03-17T09:45:34.714Z,9.60
2023-03-17T09:48:42.048Z,9.20
2023-03-17T09:51:14.159Z,8.77
2023-03-17T09:53:50.912Z,9.17
2023-03-17T09:56:21.364Z,7.90
2023-03-17T09:58:56.174Z,9.50
2023-03-17T10:01:25.158Z,7.60
2023-03-17T10:03:54.712Z,7.83
2023-03-17T10:06:43.892Z,6.77
2023-03-17T10:09:27.291Z,13.23
2023-03-17T10:12:05.078Z,7.63
2023-03-17T10:14:43.574Z,6.93
2023-03-17T10:17:19.143Z,7.20
2023-03-17T10:19:55.748Z,7.70
2023-03-17T10:22:30.454Z,5.73
2023-03-17T10:25:04.152Z,10.37
2023-03-17T10:27:36.547Z,6.77
2023-03-17T10:30:13.670Z,8.50
2023-03-17T10:32:44.314Z,7.00
2023-03-17T10:35:15.292Z,6.57
2023-03-17T10:37:44.889Z,7.07
2023-03-17T10:40:24.823Z,6.03
2023-03-17T10:43:04.019Z,6.50
2023-03-17T10:45:38.379Z,5.37
2023-03-17T10:48:11.458Z,5.13
2023-03-17T10:50:42.026Z,7.10
2023-03-17T10:53:20.601Z,5.50
2023-03-17T10:55:51.975Z,6.20
2023-03-17T10:58:23.471Z,4.20
2023-03-17T11:00:58.374Z,11.40
2023-03-17T11:03:30.746Z,7.33
2023-03-17T11:06:04.240Z,4.90
2023-03-17T11:08:35.899Z,6.50
2023-03-17T11:11:08.606Z,12.10
2023-03-17T11:13:37.579Z,8.30
2023-03-17T11:16:22.604Z,6.83
2023-03-17T11:18:54.644Z,6.90
2023-03-17T11:21:28.437Z,6.13
2023-03-17T11:24:04.852Z,7.23
2023-03-17T11:26:53.222Z,5.33
2023-03-17T11:29:28.261Z,4.70
2023-03-17T11:32:13.022Z,5.23
2023-03-17T11:34:57.365Z,6.33
2023-03-17T11:37:36.390Z,5.00
2023-03-17T11:40:15.120Z,4.90
2023-03-17T11:42:55.982Z,4.40
2023-03-17T11:45:30.996Z,4.97
2023-03-17T11:48:15.294Z,5.70
2023-03-17T11:50:57.410Z,4.60
2023-03-17T11:53:53.490Z,5.13
2023-03-17T11:56:26.606Z,5.70
2023-03-17T11:59:02.015Z,6.63
2023-03-17T12:01:37.573Z,5.70
2023-03-17T12:04:18.768Z,4.80
2023-03-17T12:06:53.604Z,4.60
2023-03-17T12:09:31.264Z,4.60
2023-03-17T12:12:03.071Z,5.40
2023-03-17T12:14:35.314Z,4.13
2023-03-17T12:17:10.237Z,4.50
2023-03-17T12:19:45.741Z,5.03
2023-03-17T12:22:23.411Z,5.77
2023-03-17T12:25:05.224Z,7.20
2023-03-17T12:27:38.416Z,4.93
2023-03-17T12:30:17.701Z,5.30
2023-03-17T12:32:55.227Z,5.77
2023-03-17T12:35:32.195Z,6.90
2023-03-17T12:38:03.265Z,4.40
2023-03-17T12:40:36.640Z,5.17
2023-03-17T12:43:36.687Z,6.27
2023-03-17T12:46:20.082Z,5.17
2023-03-17T12:49:29.071Z,5.93
2023-03-17T12:52:26.334Z,4.77
2023-03-17T12:54:55.609Z,7.10
2023-03-17T12:57:30.238Z,5.80
2023-03-17T13:00:05.817Z,4.57
2023-03-17T13:02:39.157Z,5.03
2023-03-17T13:05:10.777Z,4.50
2023-03-17T13:07:48.619Z,5.13
2023-03-17T13:10:38.474Z,4.30
2023-03-17T13:13:37.987Z,9.27
2023-03-17T13:16:07.901Z,4.10
2023-03-17T13:19:08.334Z,7.33
2023-03-17T13:21:39.084Z,5.00
2023-03-17T13:24:42.256Z,5.47
2023-03-17T13:27:14.692Z,5.20
2023-03-17T13:29:49.020Z,5.03
2023-03-17T13:32:40.117Z,11.00
2023-03-17T13:35:21.430Z,4.30
2023-03-17T13:38:14.858Z,5.33
2023-03-17T13:40:57.911Z,5.33
2023-03-17T13:43:47.745Z,6.07
2023-03-17T13:46:34.243Z,4.90
2023-03-17T13:49:15.562Z,6.03
2023-03-17T13:51:59.078Z,4.27
2023-03-17T13:54:34.412Z,6.60
2023-03-17T13:57:27.407Z,5.07
2023-03-17T14:00:00.937Z,4.90
2023-03-17T14:02:33.832Z,12.43
2023-03-17T14:05:06.608Z,4.83
2023-03-17T14:07:48.318Z,5.03
2023-03-17T14:10:21.416Z,5.30
2023-03-17T14:12:59.602Z,4.93
2023-03-17T14:15:34.186Z,5.80
2023-03-17T14:18:06.326Z,4.43
2023-03-17T14:20:35.604Z,5.37
2023-03-17T14:23:05.844Z,5.13
2023-03-17T14:25:36.896Z,6.37
2023-03-17T14:28:11.387Z,4.47
2023-03-17T14:30:40.682Z,5.60
2023-03-17T14:33:25.020Z,6.23
2023-03-17T14:35:57.932Z,4.50
2023-03-17T14:38:28.540Z,4.63
2023-03-17T14:41:03.154Z,5.63
2023-03-17T14:43:34.543Z,7.90
2023-03-17T14:46:05.746Z,6.10
2023-03-17T14:48:37.311Z,6.00
2023-03-17T14:51:10.305Z,3.63
2023-03-17T14:53:43.401Z,4.57
2023-03-17T14:56:12.714Z,5.07
2023-03-17T14:58:45.016Z,4.23
2023-03-17T15:01:18.459Z,4.67
2023-03-17T15:03:57.794Z,5.00
2023-03-17T15:06:28.524Z,5.30
2023-03-17T15:09:00.626Z,4.90
2023-03-17T15:11:38.174Z,5.13
2023-03-17T15:14:21.110Z,4.70
2023-03-17T15:16:51.978Z,5.47
2023-03-17T15:19:24.196Z,8.40
2023-03-17T15:21:53.546Z,5.00
2023-03-17T15:24:40.839Z,5.37
2023-03-17T15:27:16.751Z,5.00
2023-03-17T15:29:48.471Z,5.10
2023-03-17T15:32:20.540Z,4.80
2023-03-17T15:34:50.131Z,5.20
2023-03-17T15:37:20.859Z,6.60
2023-03-17T15:39:50.859Z,5.90
2023-03-17T15:42:20.995Z,6.23
2023-03-17T15:44:51.713Z,5.03
2023-03-17T15:47:23.000Z,5.20
2023-03-17T15:49:52.448Z,5.23
2023-03-17T15:52:25.169Z,6.47
2023-03-17T15:54:54.841Z,4.90
2023-03-17T15:57:24.675Z,6.10
2023-03-17T15:59:55.379Z,7.10
2023-03-17T16:02:29.195Z,5.07
2023-03-17T16:04:59.026Z,6.10
2023-03-17T16:07:28.577Z,5.60
2023-03-17T16:09:57.706Z,5.10
2023-03-17T16:12:26.935Z,6.47
2023-03-17T16:14:57.224Z,6.33
2023-03-17T16:17:30.147Z,5.53
2023-03-17T16:19:59.887Z,5.93
2023-03-17T16:22:39.599Z,6.37
2023-03-17T16:25:20.947Z,6.33
2023-03-17T16:27:50.698Z,11.70
2023-03-17T16:30:23.257Z,9.67
2023-03-17T16:32:52.820Z,6.17
2023-03-17T16:35:23.628Z,5.23
2023-03-17T16:37:54.457Z,6.40
2023-03-17T16:40:25.988Z,7.70
2023-03-17T16:42:55.677Z,6.00
2023-03-17T16:45:29.405Z,8.73
2023-03-17T16:48:00.131Z,6.30
2023-03-17T16:50:33.712Z,7.60
2023-03-17T16:53:03.021Z,6.43
2023-03-17T16:55:32.112Z,6.00
2023-03-17T16:58:05.167Z,6.57
2023-03-17T17:00:36.034Z,7.40
2023-03-17T17:03:05.132Z,8.07
2023-03-17T17:05:34.919Z,9.07
2023-03-17T17:08:04.054Z,9.63
2023-03-17T17:10:35.144Z,12.43
2023-03-17T17:13:07.671Z,7.50
2023-03-17T17:15:39.773Z,7.43
2023-03-17T17:18:14.966Z,8.43
2023-03-17T17:20:44.920Z,7.87
2023-03-17T17:23:15.991Z,9.17
2023-03-17T17:25:45.654Z,6.83
2023-03-17T17:28:16.531Z,7.03
2023-03-17T17:30:48.312Z,6.87
2023-03-17T17:33:18.738Z,7.00
2023-03-17T17:35:51.150Z,7.43
2023-03-17T17:38:23.869Z,7.33
2023-03-17T17:40:53.725Z,10.23
2023-03-17T17:43:25.239Z,8.43
2023-03-17T17:45:58.319Z,10.43
2023-03-17T17:48:30.345Z,8.30
2023-03-17T17:51:00.823Z,9.50
2023-03-17T17:53:31.609Z,10.53
2023-03-17T17:56:02.508Z,12.27
2023-03-17T17:58:32.353Z,17.00
2023-03-17T18:01:06.064Z,10.23
2023-03-17T18:03:36.814Z,9.50
2023-03-17T18:06:07.901Z,9.00
2023-03-17T18:08:38.331Z,10.80
2023-03-17T18:11:08.984Z,9.13
2023-03-17T18:13:39.703Z,8.20
2023-03-17T18:16:14.162Z,10.03
2023-03-17T18:18:46.508Z,9.23
2023-03-17T18:21:16.784Z,13.10
2023-03-17T18:23:49.786Z,12.00
2023-03-17T18:26:21.524Z,9.33
2023-03-17T18:28:54.659Z,9.87
2023-03-17T18:31:36.394Z,9.93
2023-03-17T18:34:09.175Z,10.63
2023-03-17T18:36:40.192Z,10.97
2023-03-17T18:39:10.281Z,10.93
2023-03-17T18:41:40.462Z,17.97
2023-03-17T18:44:12.148Z,14.90
2023-03-17T18:46:44.769Z,15.07
2023-03-17T18:49:25.852Z,13.17
2023-03-17T18:51:56.418Z,10.93
2023-03-17T18:54:29.020Z,14.80
2023-03-17T18:57:03.763Z,16.73
2023-03-17T18:59:34.143Z,13.60
2023-03-17T19:02:07.035Z,11.97
2023-03-17T19:04:37.365Z,12.73
2023-03-17T19:07:08.213Z,13.17
2023-03-17T19:09:40.063Z,15.30
2023-03-17T19:12:18.338Z,13.10
2023-03-17T19:14:49.885Z,12.20
2023-03-17T19:17:22.286Z,13.97
2023-03-17T19:19:56.104Z,12.80
2023-03-17T19:22:33.835Z,13.97
2023-03-17T19:25:07.340Z,13.20
2023-03-17T19:27:39.844Z,14.97
2023-03-17T19:30:11.872Z,15.83
2023-03-17T19:32:47.273Z,15.30
2023-03-17T19:35:16.672Z,14.43
2023-03-17T19:37:48.965Z,14.40
2023-03-17T19:40:22.398Z,12.10
2023-03-17T19:42:54.491Z,12.83
2023-03-17T19:45:27.300Z,13.70
2023-03-17T19:47:59.751Z,13.90
2023-03-17T19:50:34.285Z,15.40
2023-03-17T19:53:04.453Z,16.10
2023-03-17T19:55:35.523Z,15.83
2023-03-17T19:58:06.697Z,18.17
2023-03-17T20:00:38.768Z,14.53
2023-03-17T20:03:15.755Z,19.43
2023-03-17T20:05:52.866Z,14.13
2023-03-17T20:08:25.581Z,16.67
2023-03-17T20:10:57.333Z,15.27
2023-03-17T20:13:28.608Z,13.87
2023-03-17T20:15:59.527Z,16.40
2023-03-17T20:18:32.690Z,16.33
2023-03-17T20:21:06.412Z,15.37
2023-03-17T20:23:38.565Z,15.63
2023-03-17T20:26:14.616Z,14.30
2023-03-17T20:28:45.784Z,13.57
2023-03-17T20:31:19.624Z,15.67
2023-03-17T20:33:51.452Z,13.60
2023-03-17T20:36:22.944Z,13.13
2023-03-17T20:38:53.714Z,13.03
2023-03-17T20:41:29.945Z,14.57
2023-03-17T20:43:59.892Z,13.77
2023-03-17T20:46:30.232Z,16.00
2023-03-17T20:49:02.792Z,17.00
2023-03-17T20:51:33.124Z,15.73
2023-03-17T20:54:06.019Z,15.30
2023-03-17T20:56:38.172Z,14.40
2023-03-17T20:59:10.406Z,17.27
2023-03-17T21:01:41.534Z,14.33
2023-03-17T21:04:19.297Z,14.10
2023-03-17T21:06:50.119Z,15.50
2023-03-17T21:09:19.296Z,12.13
2023-03-17T21:11:49.933Z,13.67
2023-03-17T21:14:22.169Z,14.87
2023-03-17T21:16:52.120Z,13.87
2023-03-17T21:19:23.781Z,13.87
2023-03-17T21:21:53.160Z,14.27
2023-03-17T21:24:27.722Z,15.33
2023-03-17T21:26:57.492Z,13.60
2023-03-17T21:29:26.549Z,12.77
2023-03-17T21:31:57.567Z,14.17
2023-03-17T21:34:29.349Z,11.80
2023-03-17T21:37:00.591Z,13.63
2023-03-17T21:39:29.922Z,14.30
2023-03-17T21:42:01.125Z,16.00
2023-03-17T21:44:32.678Z,15.60
2023-03-17T21:47:03.011Z,14.60
2023-03-17T21:49:33.551Z,12.50
2023-03-17T21:52:02.850Z,14.60
2023-03-17T21:54:31.871Z,14.10
2023-03-17T21:57:00.614Z,15.43
2023-03-17T21:59:32.074Z,13.00
2023-03-17T22:02:00.956Z,16.00
2023-03-17T22:04:30.166Z,17.30
2023-03-17T22:07:00.511Z,16.33
2023-03-17T22:09:29.493Z,23.03
2023-03-17T22:11:58.300Z,13.73
2023-03-17T22:14:27.180Z,15.30
2023-03-17T22:16:57.025Z,16.73
2023-03-17T22:19:25.924Z,18.40
2023-03-17T22:21:54.760Z,19.17
2023-03-17T22:24:25.754Z,18.70
2023-03-17T22:26:55.849Z,16.23
2023-03-17T22:29:24.677Z,13.40
2023-03-17T22:31:53.458Z,14.97
2023-03-17T22:34:22.295Z,15.23
2023-03-17T22:36:51.564Z,13.90
2023-03-17T22:39:20.417Z,15.23
2023-03-17T22:41:50.682Z,17.87
2023-03-17T22:44:19.426Z,16.93
2023-03-17T22:46:48.196Z,22.20
2023-03-17T22:49:17.030Z,22.33
2023-03-17T22:51:47.814Z,19.73
2023-03-17T22:54:18.787Z,21.03
2023-03-17T22:56:48.726Z,17.33
2023-03-17T22:59:18.875Z,15.20
2023-03-17T23:01:47.722Z,18.40
2023-03-17T23:04:16.900Z,18.60
2023-03-17T23:06:45.846Z,16.17
2023-03-17T23:09:14.640Z,17.03
2023-03-17T23:11:43.743Z,18.00
2023-03-17T23:14:13.359Z,20.20
2023-03-17T23:16:43.589Z,18.90
2023-03-17T23:19:12.726Z,16.20
2023-03-17T23:21:42.078Z,14.17
2023-03-17T23:24:10.884Z,26.50
2023-03-17T23:26:39.647Z,16.73
2023-03-17T23:29:09.814Z,14.83
2023-03-17T23:31:39.887Z,16.93
2023-03-17T23:34:10.897Z,13.97
2023-03-17T23:36:40.363Z,20.03
2023-03-17T23:39:09.924Z,16.37
2023-03-17T23:41:39.133Z,17.10
2023-03-17T23:44:08.466Z,19.87
2023-03-17T23:46:37.679Z,18.43
2023-03-17T23:49:07.518Z,18.10
2023-03-17T23:51:37.778Z,15.77
2023-03-17T23:54:07.885Z,16.47
2023-03-17T23:56:36.623Z,16.10
2023-03-17T23:59:07.609Z,18.30
